Terminal Aerodrome Forecast
Issued by NWS Anchorage, AK

Home | Current Version | Previous Version | Text Only | Print | Product List | Glossary On
Versions: 1 2 3 4 5 6 7 8 9 10 11 12 13 14 15 16 17 18
000
FTAK31 PANC 251740
TAFANC
TAF
PANC 251740Z 2518/2624 00000KT P6SM FEW004 SCT035 OVC050
      TEMPO 2518/2521 6SM BR SCT004 BKN035
     FM252100 VRB03KT P6SM SCT080 SCT120
     FM260600 VRB03KT P6SM BKN060
     FM261500 VRB03KT P6SM VCFG FEW001 SCT060 SCT120
     FM262000 04005KT P6SM FEW050 SCT200=

USA.gov is the U.S. government's official web portal to all federal, state and local government web resources and services.